sensor_id;sensor_type;location;lat;lon;timestamp;pressure;altitude;pressure_sealevel;temperature;humidity
86272;BME280;76930;50.692;16.628;2024-03-07T00:00:43;98746.63;;;4.49;74.70
86272;BME280;76930;50.692;16.628;2024-03-07T00:03:10;98746.50;;;4.41;74.67
86272;BME280;76930;50.692;16.628;2024-03-07T00:05:39;98749.75;;;4.36;74.80
86272;BME280;76930;50.692;16.628;2024-03-07T00:08:06;98747.84;;;4.33;74.69
86272;BME280;76930;50.692;16.628;2024-03-07T00:10:34;98748.81;;;4.28;74.74
86272;BME280;76930;50.692;16.628;2024-03-07T00:13:03;98746.43;;;4.23;74.43
86272;BME280;76930;50.692;16.628;2024-03-07T00:15:32;98745.42;;;4.19;74.15
86272;BME280;76930;50.692;16.628;2024-03-07T00:17:59;98743.58;;;4.13;74.34
86272;BME280;76930;50.692;16.628;2024-03-07T00:20:28;98743.89;;;4.11;74.25
86272;BME280;76930;50.692;16.628;2024-03-07T00:22:55;98747.27;;;4.10;74.29
86272;BME280;76930;50.692;16.628;2024-03-07T00:25:22;98746.48;;;4.08;74.31
86272;BME280;76930;50.692;16.628;2024-03-07T00:27:49;98741.73;;;4.02;74.19
86272;BME280;76930;50.692;16.628;2024-03-07T00:30:20;98739.74;;;3.96;74.28
86272;BME280;76930;50.692;16.628;2024-03-07T00:32:51;98741.83;;;3.96;74.67
86272;BME280;76930;50.692;16.628;2024-03-07T00:35:18;98743.50;;;3.98;74.31
86272;BME280;76930;50.692;16.628;2024-03-07T00:37:47;98742.32;;;4.01;74.36
86272;BME280;76930;50.692;16.628;2024-03-07T00:40:15;98739.08;;;3.99;74.43
86272;BME280;76930;50.692;16.628;2024-03-07T00:42:42;98735.21;;;3.95;74.31
86272;BME280;76930;50.692;16.628;2024-03-07T00:45:09;98741.39;;;3.95;74.31
86272;BME280;76930;50.692;16.628;2024-03-07T00:47:37;98736.48;;;3.91;74.27
86272;BME280;76930;50.692;16.628;2024-03-07T00:50:05;98736.76;;;3.93;74.26
86272;BME280;76930;50.692;16.628;2024-03-07T00:52:36;98734.84;;;3.96;74.09
86272;BME280;76930;50.692;16.628;2024-03-07T00:55:05;98731.23;;;3.94;73.91
86272;BME280;76930;50.692;16.628;2024-03-07T00:57:35;98731.77;;;3.91;74.06
86272;BME280;76930;50.692;16.628;2024-03-07T01:00:03;98728.65;;;3.89;74.09
86272;BME280;76930;50.692;16.628;2024-03-07T01:02:30;98733.06;;;3.90;73.83
86272;BME280;76930;50.692;16.628;2024-03-07T01:04:57;98728.94;;;3.87;73.74
86272;BME280;76930;50.692;16.628;2024-03-07T01:07:25;98731.64;;;3.86;73.79
86272;BME280;76930;50.692;16.628;2024-03-07T01:09:52;98727.69;;;3.87;73.65
86272;BME280;76930;50.692;16.628;2024-03-07T01:12:21;98728.47;;;3.89;73.42
86272;BME280;76930;50.692;16.628;2024-03-07T01:14:51;98726.88;;;3.86;73.34
86272;BME280;76930;50.692;16.628;2024-03-07T01:17:19;98726.09;;;3.78;73.27
86272;BME280;76930;50.692;16.628;2024-03-07T01:19:46;98723.23;;;3.68;73.44
86272;BME280;76930;50.692;16.628;2024-03-07T01:22:15;98724.02;;;3.63;73.63
86272;BME280;76930;50.692;16.628;2024-03-07T01:24:42;98727.61;;;3.65;73.82
86272;BME280;76930;50.692;16.628;2024-03-07T01:27:11;98734.37;;;3.67;73.71
86272;BME280;76930;50.692;16.628;2024-03-07T01:29:38;98733.38;;;3.65;73.66
86272;BME280;76930;50.692;16.628;2024-03-07T01:32:08;98738.16;;;3.65;73.51
86272;BME280;76930;50.692;16.628;2024-03-07T01:34:36;98735.52;;;3.62;73.47
86272;BME280;76930;50.692;16.628;2024-03-07T01:37:03;98733.90;;;3.59;73.27
86272;BME280;76930;50.692;16.628;2024-03-07T01:39:34;98732.73;;;3.61;73.39
86272;BME280;76930;50.692;16.628;2024-03-07T01:42:01;98732.78;;;3.64;73.32
86272;BME280;76930;50.692;16.628;2024-03-07T01:44:28;98735.98;;;3.63;73.22
86272;BME280;76930;50.692;16.628;2024-03-07T01:46:59;98735.33;;;3.66;73.34
86272;BME280;76930;50.692;16.628;2024-03-07T01:49:30;98737.08;;;3.66;73.15
86272;BME280;76930;50.692;16.628;2024-03-07T01:52:00;98735.80;;;3.67;73.10
86272;BME280;76930;50.692;16.628;2024-03-07T01:54:28;98734.17;;;3.68;73.17
86272;BME280;76930;50.692;16.628;2024-03-07T01:56:55;98733.94;;;3.66;73.07
86272;BME280;76930;50.692;16.628;2024-03-07T01:59:23;98736.02;;;3.66;73.04
86272;BME280;76930;50.692;16.628;2024-03-07T02:01:51;98735.38;;;3.68;73.01
86272;BME280;76930;50.692;16.628;2024-03-07T02:04:19;98737.20;;;3.70;72.94
86272;BME280;76930;50.692;16.628;2024-03-07T02:06:46;98737.98;;;3.69;72.92
86272;BME280;76930;50.692;16.628;2024-03-07T02:09:13;98735.21;;;3.68;72.79
86272;BME280;76930;50.692;16.628;2024-03-07T02:11:41;98735.77;;;3.64;72.71
86272;BME280;76930;50.692;16.628;2024-03-07T02:14:09;98734.70;;;3.61;72.74
86272;BME280;76930;50.692;16.628;2024-03-07T02:16:36;98733.88;;;3.60;72.74
86272;BME280;76930;50.692;16.628;2024-03-07T02:19:03;98729.27;;;3.64;72.68
86272;BME280;76930;50.692;16.628;2024-03-07T02:21:30;98732.95;;;3.68;72.69
86272;BME280;76930;50.692;16.628;2024-03-07T02:23:57;98733.63;;;3.61;72.53
86272;BME280;76930;50.692;16.628;2024-03-07T02:26:25;98734.33;;;3.58;72.63
86272;BME280;76930;50.692;16.628;2024-03-07T02:28:52;98737.86;;;3.51;72.79
86272;BME280;76930;50.692;16.628;2024-03-07T02:31:19;98737.20;;;3.43;72.81
86272;BME280;76930;50.692;16.628;2024-03-07T02:33:46;98735.48;;;3.39;73.07
86272;BME280;76930;50.692;16.628;2024-03-07T02:36:13;98732.14;;;3.35;73.22
86272;BME280;76930;50.692;16.628;2024-03-07T02:38:41;98734.86;;;3.30;73.29
86272;BME280;76930;50.692;16.628;2024-03-07T02:41:08;98735.27;;;3.25;73.36
86272;BME280;76930;50.692;16.628;2024-03-07T02:43:35;98732.67;;;3.21;73.50
86272;BME280;76930;50.692;16.628;2024-03-07T02:46:05;98732.65;;;3.18;73.68
86272;BME280;76930;50.692;16.628;2024-03-07T02:48:33;98734.92;;;3.18;73.66
86272;BME280;76930;50.692;16.628;2024-03-07T02:51:00;98731.80;;;3.20;73.59
86272;BME280;76930;50.692;16.628;2024-03-07T02:53:28;98733.01;;;3.24;73.59
86272;BME280;76930;50.692;16.628;2024-03-07T02:55:55;98732.70;;;3.28;73.43
86272;BME280;76930;50.692;16.628;2024-03-07T02:58:22;98731.84;;;3.30;73.51
86272;BME280;76930;50.692;16.628;2024-03-07T03:00:57;98728.72;;;3.33;73.41
86272;BME280;76930;50.692;16.628;2024-03-07T03:03:25;98727.20;;;3.35;73.19
86272;BME280;76930;50.692;16.628;2024-03-07T03:05:52;98729.83;;;3.35;73.27
86272;BME280;76930;50.692;16.628;2024-03-07T03:08:20;98729.14;;;3.35;73.28
86272;BME280;76930;50.692;16.628;2024-03-07T03:10:47;98729.34;;;3.38;73.20
86272;BME280;76930;50.692;16.628;2024-03-07T03:13:15;98733.83;;;3.43;73.09
86272;BME280;76930;50.692;16.628;2024-03-07T03:15:43;98733.73;;;3.45;73.05
86272;BME280;76930;50.692;16.628;2024-03-07T03:18:10;98735.56;;;3.40;72.95
86272;BME280;76930;50.692;16.628;2024-03-07T03:20:37;98735.01;;;3.34;73.09
86272;BME280;76930;50.692;16.628;2024-03-07T03:23:08;98733.94;;;3.31;73.27
86272;BME280;76930;50.692;16.628;2024-03-07T03:25:47;98735.73;;;3.30;73.08
86272;BME280;76930;50.692;16.628;2024-03-07T03:28:16;98737.95;;;3.31;73.00
86272;BME280;76930;50.692;16.628;2024-03-07T03:30:47;98736.04;;;3.31;73.06
86272;BME280;76930;50.692;16.628;2024-03-07T03:33:15;98737.08;;;3.32;72.82
86272;BME280;76930;50.692;16.628;2024-03-07T03:35:43;98737.71;;;3.29;73.09
86272;BME280;76930;50.692;16.628;2024-03-07T03:38:12;98737.91;;;3.29;73.31
86272;BME280;76930;50.692;16.628;2024-03-07T03:40:39;98739.26;;;3.30;73.19
86272;BME280;76930;50.692;16.628;2024-03-07T03:43:07;98738.94;;;3.29;73.49
86272;BME280;76930;50.692;16.628;2024-03-07T03:45:34;98738.23;;;3.26;73.17
86272;BME280;76930;50.692;16.628;2024-03-07T03:48:01;98735.34;;;3.20;73.23
86272;BME280;76930;50.692;16.628;2024-03-07T03:50:29;98739.41;;;3.16;73.24
86272;BME280;76930;50.692;16.628;2024-03-07T03:52:56;98739.05;;;3.09;73.45
86272;BME280;76930;50.692;16.628;2024-03-07T03:55:24;98734.91;;;3.04;74.01
86272;BME280;76930;50.692;16.628;2024-03-07T03:57:51;98737.88;;;3.04;73.99
86272;BME280;76930;50.692;16.628;2024-03-07T04:00:18;98736.73;;;3.06;73.73
86272;BME280;76930;50.692;16.628;2024-03-07T04:02:46;98740.56;;;3.07;73.72
86272;BME280;76930;50.692;16.628;2024-03-07T04:05:19;98745.59;;;3.08;73.73
86272;BME280;76930;50.692;16.628;2024-03-07T04:07:47;98739.77;;;3.05;73.54
86272;BME280;76930;50.692;16.628;2024-03-07T04:10:17;98743.52;;;3.04;73.84
86272;BME280;76930;50.692;16.628;2024-03-07T04:12:45;98745.13;;;3.04;73.62
86272;BME280;76930;50.692;16.628;2024-03-07T04:15:14;98744.73;;;3.04;73.72
86272;BME280;76930;50.692;16.628;2024-03-07T04:17:46;98746.16;;;3.04;73.67
86272;BME280;76930;50.692;16.628;2024-03-07T04:20:15;98743.05;;;3.03;73.60
86272;BME280;76930;50.692;16.628;2024-03-07T04:22:46;98746.23;;;2.99;73.60
86272;BME280;76930;50.692;16.628;2024-03-07T04:25:13;98740.45;;;2.98;73.89
86272;BME280;76930;50.692;16.628;2024-03-07T04:27:43;98736.04;;;2.99;73.66
86272;BME280;76930;50.692;16.628;2024-03-07T04:30:10;98736.64;;;3.04;73.43
86272;BME280;76930;50.692;16.628;2024-03-07T04:32:38;98740.88;;;3.08;73.30
86272;BME280;76930;50.692;16.628;2024-03-07T04:35:10;98741.91;;;3.08;73.43
86272;BME280;76930;50.692;16.628;2024-03-07T04:37:41;98747.27;;;3.10;73.36
86272;BME280;76930;50.692;16.628;2024-03-07T04:40:09;98747.41;;;3.10;72.95
86272;BME280;76930;50.692;16.628;2024-03-07T04:42:48;98747.93;;;3.07;72.99
86272;BME280;76930;50.692;16.628;2024-03-07T04:45:19;98750.20;;;3.00;72.72
86272;BME280;76930;50.692;16.628;2024-03-07T04:47:48;98747.21;;;2.97;72.83
86272;BME280;76930;50.692;16.628;2024-03-07T04:50:17;98753.52;;;2.97;72.80
86272;BME280;76930;50.692;16.628;2024-03-07T04:52:46;98751.94;;;2.94;72.56
86272;BME280;76930;50.692;16.628;2024-03-07T04:55:15;98751.05;;;2.90;72.72
86272;BME280;76930;50.692;16.628;2024-03-07T04:57:43;98753.59;;;2.84;72.82
86272;BME280;76930;50.692;16.628;2024-03-07T05:00:13;98752.74;;;2.84;73.05
86272;BME280;76930;50.692;16.628;2024-03-07T05:02:49;98756.41;;;2.81;73.10
86272;BME280;76930;50.692;16.628;2024-03-07T05:05:18;98752.80;;;2.79;73.01
86272;BME280;76930;50.692;16.628;2024-03-07T05:07:51;98757.35;;;2.83;73.05
86272;BME280;76930;50.692;16.628;2024-03-07T05:10:18;98758.94;;;2.83;73.14
86272;BME280;76930;50.692;16.628;2024-03-07T05:12:46;98765.00;;;2.85;73.13
86272;BME280;76930;50.692;16.628;2024-03-07T05:15:13;98763.98;;;2.88;73.13
86272;BME280;76930;50.692;16.628;2024-03-07T05:17:40;98770.88;;;2.91;73.06
86272;BME280;76930;50.692;16.628;2024-03-07T05:20:10;98770.23;;;2.86;72.67
86272;BME280;76930;50.692;16.628;2024-03-07T05:22:40;98773.50;;;2.79;72.74
86272;BME280;76930;50.692;16.628;2024-03-07T05:25:11;98779.79;;;2.81;72.75
86272;BME280;76930;50.692;16.628;2024-03-07T05:27:39;98781.70;;;2.81;72.78
86272;BME280;76930;50.692;16.628;2024-03-07T05:30:07;98782.40;;;2.81;72.66
86272;BME280;76930;50.692;16.628;2024-03-07T05:32:38;98787.52;;;2.77;72.55
86272;BME280;76930;50.692;16.628;2024-03-07T05:35:12;98789.87;;;2.72;72.55
86272;BME280;76930;50.692;16.628;2024-03-07T05:37:41;98785.30;;;2.68;72.90
86272;BME280;76930;50.692;16.628;2024-03-07T05:40:14;98790.58;;;2.72;72.79
86272;BME280;76930;50.692;16.628;2024-03-07T05:42:42;98793.48;;;2.74;72.77
86272;BME280;76930;50.692;16.628;2024-03-07T05:45:09;98794.51;;;2.74;72.81
86272;BME280;76930;50.692;16.628;2024-03-07T05:47:37;98794.16;;;2.74;72.58
86272;BME280;76930;50.692;16.628;2024-03-07T05:50:05;98799.05;;;2.71;72.70
86272;BME280;76930;50.692;16.628;2024-03-07T05:52:34;98796.52;;;2.65;72.53
86272;BME280;76930;50.692;16.628;2024-03-07T05:55:03;98798.70;;;2.67;72.79
86272;BME280;76930;50.692;16.628;2024-03-07T05:57:33;98801.61;;;2.69;72.83
86272;BME280;76930;50.692;16.628;2024-03-07T06:00:01;98796.70;;;2.72;72.78
86272;BME280;76930;50.692;16.628;2024-03-07T06:02:28;98799.61;;;2.74;72.73
86272;BME280;76930;50.692;16.628;2024-03-07T06:04:55;98798.30;;;2.76;72.82
86272;BME280;76930;50.692;16.628;2024-03-07T06:07:22;98797.64;;;2.75;72.70
86272;BME280;76930;50.692;16.628;2024-03-07T06:09:50;98804.77;;;2.73;72.44
86272;BME280;76930;50.692;16.628;2024-03-07T06:12:19;98802.00;;;2.76;72.59
86272;BME280;76930;50.692;16.628;2024-03-07T06:14:54;98802.08;;;2.78;72.19
86272;BME280;76930;50.692;16.628;2024-03-07T06:17:25;98806.23;;;2.79;72.26
86272;BME280;76930;50.692;16.628;2024-03-07T06:19:54;98807.15;;;2.78;72.07
86272;BME280;76930;50.692;16.628;2024-03-07T06:22:22;98811.04;;;2.74;72.30
86272;BME280;76930;50.692;16.628;2024-03-07T06:24:51;98813.27;;;2.72;72.27
86272;BME280;76930;50.692;16.628;2024-03-07T06:27:18;98816.40;;;2.69;72.49
86272;BME280;76930;50.692;16.628;2024-03-07T06:29:54;98816.16;;;2.69;72.56
86272;BME280;76930;50.692;16.628;2024-03-07T06:32:22;98819.23;;;2.72;72.59
86272;BME280;76930;50.692;16.628;2024-03-07T06:34:51;98823.53;;;2.74;72.15
86272;BME280;76930;50.692;16.628;2024-03-07T06:37:19;98822.91;;;2.72;71.82
86272;BME280;76930;50.692;16.628;2024-03-07T06:39:46;98821.54;;;2.71;71.97
86272;BME280;76930;50.692;16.628;2024-03-07T06:42:14;98823.47;;;2.71;72.08
86272;BME280;76930;50.692;16.628;2024-03-07T06:44:42;98831.36;;;2.72;71.86
86272;BME280;76930;50.692;16.628;2024-03-07T06:47:11;98830.42;;;2.65;71.53
86272;BME280;76930;50.692;16.628;2024-03-07T06:49:39;98834.14;;;2.60;71.59
86272;BME280;76930;50.692;16.628;2024-03-07T06:52:08;98834.70;;;2.64;71.83
86272;BME280;76930;50.692;16.628;2024-03-07T06:54:35;98837.18;;;2.67;71.94
86272;BME280;76930;50.692;16.628;2024-03-07T06:57:02;98837.26;;;2.65;71.56
86272;BME280;76930;50.692;16.628;2024-03-07T06:59:30;98842.20;;;2.61;71.58
86272;BME280;76930;50.692;16.628;2024-03-07T07:01:58;98843.55;;;2.55;71.68
86272;BME280;76930;50.692;16.628;2024-03-07T07:04:26;98848.50;;;2.50;71.35
86272;BME280;76930;50.692;16.628;2024-03-07T07:06:58;98850.95;;;2.50;70.69
86272;BME280;76930;50.692;16.628;2024-03-07T07:09:27;98850.52;;;2.48;70.43
86272;BME280;76930;50.692;16.628;2024-03-07T07:11:57;98845.45;;;2.43;70.72
86272;BME280;76930;50.692;16.628;2024-03-07T07:14:24;98844.96;;;2.43;70.98
86272;BME280;76930;50.692;16.628;2024-03-07T07:16:53;98848.73;;;2.44;71.05
86272;BME280;76930;50.692;16.628;2024-03-07T07:19:22;98848.61;;;2.48;71.27
86272;BME280;76930;50.692;16.628;2024-03-07T07:21:49;98852.04;;;2.49;70.72
86272;BME280;76930;50.692;16.628;2024-03-07T07:24:20;98852.73;;;2.50;70.58
86272;BME280;76930;50.692;16.628;2024-03-07T07:26:50;98851.56;;;2.48;70.31
86272;BME280;76930;50.692;16.628;2024-03-07T07:29:17;98848.77;;;2.48;70.34
86272;BME280;76930;50.692;16.628;2024-03-07T07:31:45;98848.27;;;2.48;70.43
86272;BME280;76930;50.692;16.628;2024-03-07T07:34:14;98854.91;;;2.48;70.36
86272;BME280;76930;50.692;16.628;2024-03-07T07:36:41;98854.98;;;2.51;70.07
86272;BME280;76930;50.692;16.628;2024-03-07T07:39:08;98858.90;;;2.53;69.41
86272;BME280;76930;50.692;16.628;2024-03-07T07:41:44;98853.59;;;2.54;68.90
86272;BME280;76930;50.692;16.628;2024-03-07T07:44:11;98855.68;;;2.54;69.11
86272;BME280;76930;50.692;16.628;2024-03-07T07:46:39;98857.81;;;2.58;68.73
86272;BME280;76930;50.692;16.628;2024-03-07T07:49:07;98859.66;;;2.63;68.54
86272;BME280;76930;50.692;16.628;2024-03-07T07:51:34;98855.95;;;2.68;67.70
86272;BME280;76930;50.692;16.628;2024-03-07T07:54:01;98861.70;;;2.69;66.96
86272;BME280;76930;50.692;16.628;2024-03-07T07:56:29;98856.39;;;2.70;66.62
86272;BME280;76930;50.692;16.628;2024-03-07T07:58:58;98856.06;;;2.73;66.89
86272;BME280;76930;50.692;16.628;2024-03-07T08:01:25;98860.23;;;2.74;65.29
86272;BME280;76930;50.692;16.628;2024-03-07T08:03:53;98859.99;;;2.72;63.32
86272;BME280;76930;50.692;16.628;2024-03-07T08:06:21;98857.95;;;2.62;61.76
86272;BME280;76930;50.692;16.628;2024-03-07T08:08:48;98856.94;;;2.58;62.88
86272;BME280;76930;50.692;16.628;2024-03-07T08:11:17;98855.04;;;2.57;63.11
86272;BME280;76930;50.692;16.628;2024-03-07T08:13:45;98859.77;;;2.61;64.14
86272;BME280;76930;50.692;16.628;2024-03-07T08:16:16;98863.09;;;2.69;63.34
86272;BME280;76930;50.692;16.628;2024-03-07T08:18:43;98863.58;;;2.70;62.68
86272;BME280;76930;50.692;16.628;2024-03-07T08:21:11;98865.98;;;2.67;62.15
86272;BME280;76930;50.692;16.628;2024-03-07T08:23:38;98870.13;;;2.65;61.31
86272;BME280;76930;50.692;16.628;2024-03-07T08:26:06;98872.81;;;2.60;59.17
86272;BME280;76930;50.692;16.628;2024-03-07T08:28:34;98868.45;;;2.56;60.26
86272;BME280;76930;50.692;16.628;2024-03-07T08:31:02;98867.89;;;2.56;60.78
86272;BME280;76930;50.692;16.628;2024-03-07T08:33:30;98866.89;;;2.59;61.01
86272;BME280;76930;50.692;16.628;2024-03-07T08:36:01;98869.03;;;2.62;60.38
86272;BME280;76930;50.692;16.628;2024-03-07T08:38:30;98867.60;;;2.62;59.42
86272;BME280;76930;50.692;16.628;2024-03-07T08:41:00;98867.73;;;2.64;59.53
86272;BME280;76930;50.692;16.628;2024-03-07T08:43:27;98871.34;;;2.65;59.16
86272;BME280;76930;50.692;16.628;2024-03-07T08:45:54;98875.06;;;2.64;58.35
86272;BME280;76930;50.692;16.628;2024-03-07T08:48:21;98881.95;;;2.68;59.07
86272;BME280;76930;50.692;16.628;2024-03-07T08:50:49;98878.68;;;2.70;58.53
86272;BME280;76930;50.692;16.628;2024-03-07T08:53:17;98884.99;;;2.71;58.74
86272;BME280;76930;50.692;16.628;2024-03-07T08:55:45;98881.70;;;2.66;58.26
86272;BME280;76930;50.692;16.628;2024-03-07T08:58:13;98883.29;;;2.61;58.80
86272;BME280;76930;50.692;16.628;2024-03-07T09:00:40;98888.41;;;2.61;59.62
86272;BME280;76930;50.692;16.628;2024-03-07T09:03:11;98883.46;;;2.66;59.49
86272;BME280;76930;50.692;16.628;2024-03-07T09:05:40;98883.34;;;2.72;58.87
86272;BME280;76930;50.692;16.628;2024-03-07T09:08:08;98888.48;;;2.75;57.52
86272;BME280;76930;50.692;16.628;2024-03-07T09:10:35;98886.30;;;2.77;58.07
86272;BME280;76930;50.692;16.628;2024-03-07T09:13:04;98886.92;;;2.70;56.60
86272;BME280;76930;50.692;16.628;2024-03-07T09:15:33;98886.75;;;2.62;57.86
86272;BME280;76930;50.692;16.628;2024-03-07T09:18:01;98883.65;;;2.61;58.36
86272;BME280;76930;50.692;16.628;2024-03-07T09:20:31;98882.66;;;2.64;58.55
86272;BME280;76930;50.692;16.628;2024-03-07T09:22:58;98882.58;;;2.70;59.16
86272;BME280;76930;50.692;16.628;2024-03-07T09:25:27;98882.83;;;2.76;58.06
86272;BME280;76930;50.692;16.628;2024-03-07T09:27:54;98883.82;;;2.77;57.70
86272;BME280;76930;50.692;16.628;2024-03-07T09:30:22;98885.40;;;2.73;57.08
86272;BME280;76930;50.692;16.628;2024-03-07T09:32:55;98883.49;;;2.69;57.58
86272;BME280;76930;50.692;16.628;2024-03-07T09:35:23;98884.33;;;2.70;57.94
86272;BME280;76930;50.692;16.628;2024-03-07T09:37:50;98886.29;;;2.73;58.13
86272;BME280;76930;50.692;16.628;2024-03-07T09:40:18;98882.51;;;2.75;58.14
86272;BME280;76930;50.692;16.628;2024-03-07T09:42:47;98888.82;;;2.79;57.88
86272;BME280;76930;50.692;16.628;2024-03-07T09:45:20;98889.48;;;2.84;58.11
86272;BME280;76930;50.692;16.628;2024-03-07T09:47:49;98886.77;;;2.90;57.56
86272;BME280;76930;50.692;16.628;2024-03-07T09:50:20;98887.96;;;2.98;57.02
86272;BME280;76930;50.692;16.628;2024-03-07T09:52:53;98888.08;;;3.03;56.46
86272;BME280;76930;50.692;16.628;2024-03-07T09:55:22;98890.18;;;3.11;56.35
86272;BME280;76930;50.692;16.628;2024-03-07T09:57:53;98883.24;;;3.17;56.56
86272;BME280;76930;50.692;16.628;2024-03-07T10:00:25;98886.35;;;3.25;56.80
86272;BME280;76930;50.692;16.628;2024-03-07T10:02:58;98880.43;;;3.35;56.64
86272;BME280;76930;50.692;16.628;2024-03-07T10:05:28;98877.67;;;3.48;56.74
86272;BME280;76930;50.692;16.628;2024-03-07T10:07:56;98879.70;;;3.65;56.54
86272;BME280;76930;50.692;16.628;2024-03-07T10:10:24;98879.00;;;3.75;55.11
86272;BME280;76930;50.692;16.628;2024-03-07T10:12:52;98873.17;;;3.79;54.97
86272;BME280;76930;50.692;16.628;2024-03-07T10:15:20;98877.57;;;3.83;54.38
86272;BME280;76930;50.692;16.628;2024-03-07T10:17:50;98877.66;;;3.88;54.99
86272;BME280;76930;50.692;16.628;2024-03-07T10:20:19;98876.63;;;3.95;54.48
86272;BME280;76930;50.692;16.628;2024-03-07T10:22:50;98873.35;;;4.00;54.10
86272;BME280;76930;50.692;16.628;2024-03-07T10:25:20;98874.81;;;4.10;54.31
86272;BME280;76930;50.692;16.628;2024-03-07T10:27:50;98874.84;;;4.16;53.55
86272;BME280;76930;50.692;16.628;2024-03-07T10:30:18;98873.35;;;4.18;53.35
86272;BME280;76930;50.692;16.628;2024-03-07T10:32:55;98868.48;;;4.16;54.03
86272;BME280;76930;50.692;16.628;2024-03-07T10:35:23;98871.32;;;4.23;54.48
86272;BME280;76930;50.692;16.628;2024-03-07T10:37:54;98872.48;;;4.35;53.81
86272;BME280;76930;50.692;16.628;2024-03-07T10:40:22;98877.73;;;4.45;52.94
86272;BME280;76930;50.692;16.628;2024-03-07T10:42:50;98875.83;;;4.51;51.79
86272;BME280;76930;50.692;16.628;2024-03-07T10:45:22;98873.62;;;4.53;51.04
86272;BME280;76930;50.692;16.628;2024-03-07T10:47:55;98875.22;;;4.60;51.53
86272;BME280;76930;50.692;16.628;2024-03-07T10:50:35;98874.31;;;4.66;51.05
86272;BME280;76930;50.692;16.628;2024-03-07T10:53:20;98874.49;;;4.77;50.81
86272;BME280;76930;50.692;16.628;2024-03-07T10:58:37;98871.42;;;4.95;50.32
86272;BME280;76930;50.692;16.628;2024-03-07T11:01:10;98872.66;;;5.04;50.13
86272;BME280;76930;50.692;16.628;2024-03-07T11:03:40;98871.42;;;5.14;50.34
86272;BME280;76930;50.692;16.628;2024-03-07T11:06:09;98868.17;;;5.22;50.17
86272;BME280;76930;50.692;16.628;2024-03-07T11:08:38;98874.06;;;5.26;50.59
86272;BME280;76930;50.692;16.628;2024-03-07T11:11:06;98869.83;;;5.33;50.44
86272;BME280;76930;50.692;16.628;2024-03-07T11:13:33;98868.73;;;5.37;50.68
86272;BME280;76930;50.692;16.628;2024-03-07T11:16:03;98861.67;;;5.43;50.26
86272;BME280;76930;50.692;16.628;2024-03-07T11:18:31;98862.80;;;5.48;50.14
86272;BME280;76930;50.692;16.628;2024-03-07T11:20:59;98861.52;;;5.52;49.21
86272;BME280;76930;50.692;16.628;2024-03-07T11:23:32;98863.32;;;5.52;49.57
86272;BME280;76930;50.692;16.628;2024-03-07T11:26:09;98864.47;;;5.50;48.81
86272;BME280;76930;50.692;16.628;2024-03-07T11:28:39;98861.42;;;5.44;49.15
86272;BME280;76930;50.692;16.628;2024-03-07T11:31:13;98861.42;;;5.38;48.85
86272;BME280;76930;50.692;16.628;2024-03-07T11:33:42;98858.58;;;5.29;49.49
86272;BME280;76930;50.692;16.628;2024-03-07T11:36:11;98858.98;;;5.25;49.59
86272;BME280;76930;50.692;16.628;2024-03-07T11:38:47;98855.38;;;5.23;49.22
86272;BME280;76930;50.692;16.628;2024-03-07T11:41:18;98850.92;;;5.24;49.22
86272;BME280;76930;50.692;16.628;2024-03-07T11:43:47;98848.97;;;5.24;48.98
86272;BME280;76930;50.692;16.628;2024-03-07T11:46:14;98850.20;;;5.21;48.78
86272;BME280;76930;50.692;16.628;2024-03-07T11:48:44;98846.27;;;5.16;49.01
86272;BME280;76930;50.692;16.628;2024-03-07T11:51:13;98845.95;;;5.15;49.91
86272;BME280;76930;50.692;16.628;2024-03-07T11:53:43;98848.79;;;5.15;50.29
86272;BME280;76930;50.692;16.628;2024-03-07T11:56:10;98845.50;;;5.17;50.65
86272;BME280;76930;50.692;16.628;2024-03-07T11:58:44;98841.14;;;5.19;50.58
86272;BME280;76930;50.692;16.628;2024-03-07T12:01:12;98846.63;;;5.19;50.23
86272;BME280;76930;50.692;16.628;2024-03-07T12:03:41;98842.77;;;5.15;50.04
86272;BME280;76930;50.692;16.628;2024-03-07T12:06:09;98841.23;;;5.14;50.89
86272;BME280;76930;50.692;16.628;2024-03-07T12:08:39;98839.81;;;5.15;50.98
86272;BME280;76930;50.692;16.628;2024-03-07T12:11:09;98835.45;;;5.14;50.72
86272;BME280;76930;50.692;16.628;2024-03-07T12:13:39;98837.77;;;5.13;51.34
86272;BME280;76930;50.692;16.628;2024-03-07T12:16:07;98835.31;;;5.13;51.65
86272;BME280;76930;50.692;16.628;2024-03-07T12:18:35;98837.69;;;5.14;51.74
86272;BME280;76930;50.692;16.628;2024-03-07T12:21:05;98842.55;;;5.16;51.64
86272;BME280;76930;50.692;16.628;2024-03-07T12:23:39;98842.59;;;5.15;51.75
86272;BME280;76930;50.692;16.628;2024-03-07T12:26:07;98842.23;;;5.09;51.61
86272;BME280;76930;50.692;16.628;2024-03-07T12:28:38;98842.10;;;5.02;51.41
86272;BME280;76930;50.692;16.628;2024-03-07T12:31:06;98844.33;;;4.93;51.49
86272;BME280;76930;50.692;16.628;2024-03-07T12:33:43;98842.09;;;4.86;51.88
86272;BME280;76930;50.692;16.628;2024-03-07T12:36:14;98840.54;;;4.79;51.85
86272;BME280;76930;50.692;16.628;2024-03-07T12:38:44;98834.93;;;4.71;51.86
86272;BME280;76930;50.692;16.628;2024-03-07T12:41:12;98837.05;;;4.61;52.15
86272;BME280;76930;50.692;16.628;2024-03-07T12:43:44;98840.00;;;4.52;52.58
86272;BME280;76930;50.692;16.628;2024-03-07T12:46:14;98836.45;;;4.46;52.73
86272;BME280;76930;50.692;16.628;2024-03-07T12:48:45;98843.05;;;4.45;53.13
86272;BME280;76930;50.692;16.628;2024-03-07T12:51:14;98842.14;;;4.45;53.37
86272;BME280;76930;50.692;16.628;2024-03-07T12:53:47;98843.04;;;4.45;53.51
86272;BME280;76930;50.692;16.628;2024-03-07T12:56:15;98842.11;;;4.43;53.24
86272;BME280;76930;50.692;16.628;2024-03-07T12:58:47;98843.38;;;4.39;53.58
86272;BME280;76930;50.692;16.628;2024-03-07T13:01:17;98844.06;;;4.32;53.63
86272;BME280;76930;50.692;16.628;2024-03-07T13:03:46;98841.84;;;4.27;53.84
86272;BME280;76930;50.692;16.628;2024-03-07T13:06:14;98842.14;;;4.28;54.08
86272;BME280;76930;50.692;16.628;2024-03-07T13:08:46;98844.42;;;4.25;54.06
86272;BME280;76930;50.692;16.628;2024-03-07T13:11:16;98849.61;;;4.24;54.15